sensor_id;sensor_type;location;lat;lon;timestamp;P1;durP1;ratioP1;P2;durP2;ratioP2
80926;SDS011;70385;44.538;18.532;2023-06-26T00:01:27;20.33;;;13.73;;
80926;SDS011;70385;44.538;18.532;2023-06-26T00:03:58;18.88;;;13.32;;
80926;SDS011;70385;44.538;18.532;2023-06-26T00:06:27;23.05;;;13.65;;
80926;SDS011;70385;44.538;18.532;2023-06-26T00:08:54;19.17;;;13.57;;
80926;SDS011;70385;44.538;18.532;2023-06-26T00:11:23;26.13;;;14.32;;
80926;SDS011;70385;44.538;18.532;2023-06-26T00:13:49;19.38;;;13.80;;
80926;SDS011;70385;44.538;18.532;2023-06-26T00:16:17;22.15;;;14.30;;
80926;SDS011;70385;44.538;18.532;2023-06-26T00:18:44;24.83;;;14.75;;
80926;SDS011;70385;44.538;18.532;2023-06-26T00:21:10;18.10;;;13.10;;
80926;SDS011;70385;44.538;18.532;2023-06-26T00:23:35;21.38;;;14.15;;
80926;SDS011;70385;44.538;18.532;2023-06-26T00:26:02;22.98;;;14.63;;
80926;SDS011;70385;44.538;18.532;2023-06-26T00:28:29;22.75;;;14.10;;
80926;SDS011;70385;44.538;18.532;2023-06-26T00:30:56;22.42;;;13.77;;
80926;SDS011;70385;44.538;18.532;2023-06-26T00:33:22;23.65;;;14.30;;
80926;SDS011;70385;44.538;18.532;2023-06-26T00:35:48;17.67;;;13.75;;
80926;SDS011;70385;44.538;18.532;2023-06-26T00:38:14;24.27;;;14.98;;
80926;SDS011;70385;44.538;18.532;2023-06-26T00:40:42;20.75;;;15.48;;
80926;SDS011;70385;44.538;18.532;2023-06-26T00:43:10;21.25;;;15.10;;
80926;SDS011;70385;44.538;18.532;2023-06-26T00:45:41;23.83;;;14.73;;
80926;SDS011;70385;44.538;18.532;2023-06-26T00:48:07;20.00;;;13.23;;
80926;SDS011;70385;44.538;18.532;2023-06-26T00:50:37;19.77;;;14.35;;
80926;SDS011;70385;44.538;18.532;2023-06-26T00:53:03;20.65;;;15.75;;
80926;SDS011;70385;44.538;18.532;2023-06-26T00:55:33;20.13;;;14.38;;
80926;SDS011;70385;44.538;18.532;2023-06-26T00:58:02;19.05;;;14.55;;
80926;SDS011;70385;44.538;18.532;2023-06-26T01:00:28;21.35;;;14.13;;
80926;SDS011;70385;44.538;18.532;2023-06-26T01:02:56;18.83;;;11.80;;
80926;SDS011;70385;44.538;18.532;2023-06-26T01:05:26;26.15;;;15.00;;
80926;SDS011;70385;44.538;18.532;2023-06-26T01:07:53;23.10;;;15.50;;
80926;SDS011;70385;44.538;18.532;2023-06-26T01:10:20;20.58;;;14.02;;
80926;SDS011;70385;44.538;18.532;2023-06-26T01:12:46;24.65;;;14.80;;
80926;SDS011;70385;44.538;18.532;2023-06-26T01:15:12;22.80;;;13.75;;
80926;SDS011;70385;44.538;18.532;2023-06-26T01:17:38;17.40;;;12.20;;
80926;SDS011;70385;44.538;18.532;2023-06-26T01:20:10;23.05;;;14.57;;
80926;SDS011;70385;44.538;18.532;2023-06-26T01:22:57;22.70;;;14.77;;
80926;SDS011;70385;44.538;18.532;2023-06-26T01:28:24;16.75;;;12.82;;
80926;SDS011;70385;44.538;18.532;2023-06-26T01:30:53;22.23;;;13.77;;
80926;SDS011;70385;44.538;18.532;2023-06-26T01:33:20;20.30;;;13.93;;
80926;SDS011;70385;44.538;18.532;2023-06-26T01:35:50;25.33;;;13.55;;
80926;SDS011;70385;44.538;18.532;2023-06-26T01:38:17;22.42;;;14.75;;
80926;SDS011;70385;44.538;18.532;2023-06-26T01:40:45;20.40;;;14.73;;
80926;SDS011;70385;44.538;18.532;2023-06-26T01:45:59;18.70;;;14.23;;
80926;SDS011;70385;44.538;18.532;2023-06-26T01:48:33;21.35;;;13.93;;
80926;SDS011;70385;44.538;18.532;2023-06-26T01:51:04;21.63;;;14.02;;
80926;SDS011;70385;44.538;18.532;2023-06-26T01:53:36;18.45;;;14.02;;
80926;SDS011;70385;44.538;18.532;2023-06-26T01:56:11;16.42;;;13.55;;
80926;SDS011;70385;44.538;18.532;2023-06-26T01:58:43;18.08;;;13.35;;
80926;SDS011;70385;44.538;18.532;2023-06-26T02:01:10;24.35;;;14.40;;
80926;SDS011;70385;44.538;18.532;2023-06-26T02:03:38;20.30;;;14.73;;
80926;SDS011;70385;44.538;18.532;2023-06-26T02:06:06;20.17;;;14.55;;
80926;SDS011;70385;44.538;18.532;2023-06-26T02:08:32;20.42;;;14.00;;
80926;SDS011;70385;44.538;18.532;2023-06-26T02:10:58;22.77;;;14.40;;
80926;SDS011;70385;44.538;18.532;2023-06-26T02:13:25;22.40;;;15.02;;
80926;SDS011;70385;44.538;18.532;2023-06-26T02:15:52;19.00;;;14.00;;
80926;SDS011;70385;44.538;18.532;2023-06-26T02:18:17;21.15;;;15.00;;
80926;SDS011;70385;44.538;18.532;2023-06-26T02:20:45;21.35;;;14.45;;
80926;SDS011;70385;44.538;18.532;2023-06-26T02:23:12;28.08;;;15.55;;
80926;SDS011;70385;44.538;18.532;2023-06-26T02:25:38;24.80;;;16.48;;
80926;SDS011;70385;44.538;18.532;2023-06-26T02:28:04;21.83;;;15.15;;
80926;SDS011;70385;44.538;18.532;2023-06-26T02:30:29;25.77;;;15.25;;
80926;SDS011;70385;44.538;18.532;2023-06-26T02:33:00;24.48;;;15.52;;
80926;SDS011;70385;44.538;18.532;2023-06-26T02:35:27;24.48;;;16.38;;
80926;SDS011;70385;44.538;18.532;2023-06-26T02:37:54;24.65;;;16.63;;
80926;SDS011;70385;44.538;18.532;2023-06-26T02:40:20;24.42;;;15.70;;
80926;SDS011;70385;44.538;18.532;2023-06-26T02:42:52;21.67;;;15.45;;
80926;SDS011;70385;44.538;18.532;2023-06-26T02:45:19;23.35;;;15.98;;
80926;SDS011;70385;44.538;18.532;2023-06-26T02:47:45;24.42;;;16.27;;
80926;SDS011;70385;44.538;18.532;2023-06-26T02:50:12;23.25;;;15.88;;
80926;SDS011;70385;44.538;18.532;2023-06-26T02:55:24;28.63;;;14.38;;
80926;SDS011;70385;44.538;18.532;2023-06-26T02:57:52;21.85;;;15.15;;
80926;SDS011;70385;44.538;18.532;2023-06-26T03:00:21;18.33;;;13.48;;
80926;SDS011;70385;44.538;18.532;2023-06-26T03:02:49;24.25;;;14.85;;
80926;SDS011;70385;44.538;18.532;2023-06-26T03:05:19;21.45;;;14.73;;
80926;SDS011;70385;44.538;18.532;2023-06-26T03:07:47;20.92;;;15.10;;
80926;SDS011;70385;44.538;18.532;2023-06-26T03:10:14;20.02;;;15.02;;
80926;SDS011;70385;44.538;18.532;2023-06-26T03:12:42;24.50;;;15.43;;
80926;SDS011;70385;44.538;18.532;2023-06-26T03:15:11;22.98;;;14.98;;
80926;SDS011;70385;44.538;18.532;2023-06-26T03:17:39;20.42;;;13.80;;
80926;SDS011;70385;44.538;18.532;2023-06-26T03:20:10;22.70;;;14.93;;
80926;SDS011;70385;44.538;18.532;2023-06-26T03:22:52;26.92;;;13.85;;
80926;SDS011;70385;44.538;18.532;2023-06-26T03:25:19;22.77;;;12.80;;
80926;SDS011;70385;44.538;18.532;2023-06-26T03:27:45;19.20;;;13.93;;
80926;SDS011;70385;44.538;18.532;2023-06-26T03:30:20;19.92;;;12.93;;
80926;SDS011;70385;44.538;18.532;2023-06-26T03:32:50;20.48;;;13.38;;
80926;SDS011;70385;44.538;18.532;2023-06-26T03:35:17;23.50;;;13.27;;
80926;SDS011;70385;44.538;18.532;2023-06-26T03:37:44;18.25;;;12.93;;
80926;SDS011;70385;44.538;18.532;2023-06-26T03:40:10;18.85;;;12.80;;
80926;SDS011;70385;44.538;18.532;2023-06-26T03:42:37;18.48;;;12.75;;
80926;SDS011;70385;44.538;18.532;2023-06-26T03:45:04;19.77;;;11.93;;
80926;SDS011;70385;44.538;18.532;2023-06-26T03:47:32;21.65;;;13.57;;
80926;SDS011;70385;44.538;18.532;2023-06-26T03:49:58;18.38;;;12.73;;
80926;SDS011;70385;44.538;18.532;2023-06-26T03:52:24;20.15;;;12.20;;
80926;SDS011;70385;44.538;18.532;2023-06-26T03:54:50;21.10;;;14.00;;
80926;SDS011;70385;44.538;18.532;2023-06-26T03:57:16;21.80;;;13.73;;
80926;SDS011;70385;44.538;18.532;2023-06-26T03:59:42;20.10;;;13.45;;
80926;SDS011;70385;44.538;18.532;2023-06-26T04:02:09;20.15;;;13.38;;
80926;SDS011;70385;44.538;18.532;2023-06-26T04:04:37;17.77;;;12.45;;
80926;SDS011;70385;44.538;18.532;2023-06-26T04:07:06;17.80;;;13.13;;
80926;SDS011;70385;44.538;18.532;2023-06-26T04:09:31;19.60;;;12.00;;
80926;SDS011;70385;44.538;18.532;2023-06-26T04:12:00;20.33;;;11.75;;
80926;SDS011;70385;44.538;18.532;2023-06-26T04:14:26;13.73;;;11.25;;
80926;SDS011;70385;44.538;18.532;2023-06-26T04:16:52;18.77;;;12.45;;
80926;SDS011;70385;44.538;18.532;2023-06-26T04:19:18;20.45;;;12.73;;
80926;SDS011;70385;44.538;18.532;2023-06-26T04:21:44;23.77;;;12.95;;
80926;SDS011;70385;44.538;18.532;2023-06-26T04:24:12;19.08;;;12.20;;
80926;SDS011;70385;44.538;18.532;2023-06-26T04:26:38;20.20;;;13.35;;
80926;SDS011;70385;44.538;18.532;2023-06-26T04:29:06;22.27;;;13.75;;
80926;SDS011;70385;44.538;18.532;2023-06-26T04:31:32;17.08;;;12.65;;
80926;SDS011;70385;44.538;18.532;2023-06-26T04:34:00;19.88;;;13.90;;
80926;SDS011;70385;44.538;18.532;2023-06-26T04:36:28;23.52;;;13.77;;
80926;SDS011;70385;44.538;18.532;2023-06-26T04:38:55;18.08;;;12.18;;
80926;SDS011;70385;44.538;18.532;2023-06-26T04:41:21;23.80;;;12.85;;
80926;SDS011;70385;44.538;18.532;2023-06-26T04:43:47;24.50;;;13.77;;
80926;SDS011;70385;44.538;18.532;2023-06-26T04:46:13;22.83;;;12.90;;
80926;SDS011;70385;44.538;18.532;2023-06-26T04:48:40;16.92;;;12.88;;
80926;SDS011;70385;44.538;18.532;2023-06-26T04:51:06;23.77;;;14.07;;
80926;SDS011;70385;44.538;18.532;2023-06-26T04:53:33;25.52;;;14.50;;
80926;SDS011;70385;44.538;18.532;2023-06-26T04:55:58;21.85;;;15.05;;
80926;SDS011;70385;44.538;18.532;2023-06-26T04:58:24;19.95;;;14.02;;
80926;SDS011;70385;44.538;18.532;2023-06-26T05:00:51;18.95;;;13.02;;
80926;SDS011;70385;44.538;18.532;2023-06-26T05:03:19;17.63;;;13.00;;
80926;SDS011;70385;44.538;18.532;2023-06-26T05:05:46;19.30;;;13.00;;
80926;SDS011;70385;44.538;18.532;2023-06-26T05:08:13;24.02;;;14.50;;
80926;SDS011;70385;44.538;18.532;2023-06-26T05:10:43;20.55;;;12.43;;
80926;SDS011;70385;44.538;18.532;2023-06-26T05:13:09;27.27;;;13.60;;
80926;SDS011;70385;44.538;18.532;2023-06-26T05:15:36;21.27;;;12.73;;
80926;SDS011;70385;44.538;18.532;2023-06-26T05:18:02;18.70;;;12.45;;
80926;SDS011;70385;44.538;18.532;2023-06-26T05:20:28;17.50;;;11.95;;
80926;SDS011;70385;44.538;18.532;2023-06-26T05:22:54;19.98;;;11.85;;
80926;SDS011;70385;44.538;18.532;2023-06-26T05:25:22;18.50;;;12.20;;
80926;SDS011;70385;44.538;18.532;2023-06-26T05:27:49;23.95;;;12.25;;
80926;SDS011;70385;44.538;18.532;2023-06-26T05:30:16;16.73;;;12.48;;
80926;SDS011;70385;44.538;18.532;2023-06-26T05:32:48;20.65;;;12.77;;
80926;SDS011;70385;44.538;18.532;2023-06-26T05:35:19;23.00;;;12.65;;
80926;SDS011;70385;44.538;18.532;2023-06-26T05:37:48;19.83;;;12.00;;
80926;SDS011;70385;44.538;18.532;2023-06-26T05:40:17;19.60;;;12.63;;
80926;SDS011;70385;44.538;18.532;2023-06-26T05:42:44;18.17;;;12.25;;
80926;SDS011;70385;44.538;18.532;2023-06-26T05:45:10;20.92;;;12.75;;
80926;SDS011;70385;44.538;18.532;2023-06-26T05:47:36;19.35;;;12.43;;
80926;SDS011;70385;44.538;18.532;2023-06-26T05:50:02;19.88;;;12.98;;
80926;SDS011;70385;44.538;18.532;2023-06-26T05:52:28;20.88;;;12.73;;
80926;SDS011;70385;44.538;18.532;2023-06-26T05:54:55;18.73;;;11.02;;
80926;SDS011;70385;44.538;18.532;2023-06-26T05:57:29;16.42;;;10.95;;
80926;SDS011;70385;44.538;18.532;2023-06-26T05:59:55;15.18;;;11.23;;
80926;SDS011;70385;44.538;18.532;2023-06-26T06:02:22;17.52;;;11.98;;
80926;SDS011;70385;44.538;18.532;2023-06-26T06:04:48;25.00;;;14.02;;
80926;SDS011;70385;44.538;18.532;2023-06-26T06:07:15;20.30;;;11.10;;
80926;SDS011;70385;44.538;18.532;2023-06-26T06:09:41;20.13;;;14.05;;
80926;SDS011;70385;44.538;18.532;2023-06-26T06:12:07;20.98;;;12.57;;
80926;SDS011;70385;44.538;18.532;2023-06-26T06:14:33;19.42;;;11.90;;
80926;SDS011;70385;44.538;18.532;2023-06-26T06:17:00;26.83;;;14.15;;
80926;SDS011;70385;44.538;18.532;2023-06-26T06:19:27;21.77;;;13.48;;
80926;SDS011;70385;44.538;18.532;2023-06-26T06:21:53;28.85;;;14.95;;
80926;SDS011;70385;44.538;18.532;2023-06-26T06:24:20;24.60;;;14.07;;
80926;SDS011;70385;44.538;18.532;2023-06-26T06:26:47;23.42;;;14.20;;
80926;SDS011;70385;44.538;18.532;2023-06-26T06:29:13;23.63;;;13.60;;
80926;SDS011;70385;44.538;18.532;2023-06-26T06:31:38;22.25;;;13.63;;
80926;SDS011;70385;44.538;18.532;2023-06-26T06:34:05;20.90;;;12.80;;
80926;SDS011;70385;44.538;18.532;2023-06-26T06:36:32;19.90;;;13.05;;
80926;SDS011;70385;44.538;18.532;2023-06-26T06:38:58;20.92;;;11.77;;
80926;SDS011;70385;44.538;18.532;2023-06-26T06:41:24;22.10;;;11.73;;
80926;SDS011;70385;44.538;18.532;2023-06-26T06:43:50;16.02;;;11.13;;
80926;SDS011;70385;44.538;18.532;2023-06-26T06:46:16;35.58;;;21.25;;
80926;SDS011;70385;44.538;18.532;2023-06-26T06:48:42;31.30;;;19.58;;
80926;SDS011;70385;44.538;18.532;2023-06-26T06:51:09;35.58;;;20.95;;
80926;SDS011;70385;44.538;18.532;2023-06-26T06:53:35;35.55;;;20.85;;
80926;SDS011;70385;44.538;18.532;2023-06-26T06:56:01;33.42;;;20.08;;
80926;SDS011;70385;44.538;18.532;2023-06-26T06:58:27;27.88;;;15.23;;
80926;SDS011;70385;44.538;18.532;2023-06-26T07:00:54;27.17;;;15.43;;
80926;SDS011;70385;44.538;18.532;2023-06-26T07:03:21;36.33;;;16.63;;
80926;SDS011;70385;44.538;18.532;2023-06-26T07:05:47;38.20;;;22.15;;
80926;SDS011;70385;44.538;18.532;2023-06-26T07:08:15;40.38;;;20.10;;
80926;SDS011;70385;44.538;18.532;2023-06-26T07:10:42;36.75;;;20.30;;
80926;SDS011;70385;44.538;18.532;2023-06-26T07:13:08;24.42;;;13.63;;
80926;SDS011;70385;44.538;18.532;2023-06-26T07:15:36;25.35;;;13.63;;
80926;SDS011;70385;44.538;18.532;2023-06-26T07:18:02;29.85;;;13.07;;
80926;SDS011;70385;44.538;18.532;2023-06-26T07:20:28;25.40;;;17.13;;
80926;SDS011;70385;44.538;18.532;2023-06-26T07:22:54;23.75;;;15.38;;
80926;SDS011;70385;44.538;18.532;2023-06-26T07:25:20;23.33;;;14.02;;
80926;SDS011;70385;44.538;18.532;2023-06-26T07:27:46;22.92;;;14.48;;
80926;SDS011;70385;44.538;18.532;2023-06-26T07:30:13;28.75;;;17.10;;
80926;SDS011;70385;44.538;18.532;2023-06-26T07:32:39;33.83;;;19.67;;
80926;SDS011;70385;44.538;18.532;2023-06-26T07:35:07;39.83;;;19.60;;
80926;SDS011;70385;44.538;18.532;2023-06-26T07:37:33;37.25;;;20.95;;
80926;SDS011;70385;44.538;18.532;2023-06-26T07:39:59;35.53;;;20.77;;
80926;SDS011;70385;44.538;18.532;2023-06-26T07:42:27;27.88;;;18.67;;
80926;SDS011;70385;44.538;18.532;2023-06-26T07:44:54;52.97;;;33.10;;
80926;SDS011;70385;44.538;18.532;2023-06-26T07:47:20;41.40;;;25.90;;
80926;SDS011;70385;44.538;18.532;2023-06-26T07:49:45;45.13;;;26.58;;
80926;SDS011;70385;44.538;18.532;2023-06-26T07:52:11;19.80;;;11.50;;
80926;SDS011;70385;44.538;18.532;2023-06-26T07:54:38;15.80;;;10.77;;
80926;SDS011;70385;44.538;18.532;2023-06-26T07:57:08;14.57;;;8.65;;
80926;SDS011;70385;44.538;18.532;2023-06-26T07:59:34;16.02;;;9.27;;
80926;SDS011;70385;44.538;18.532;2023-06-26T08:02:02;18.17;;;12.20;;
80926;SDS011;70385;44.538;18.532;2023-06-26T08:04:29;46.03;;;25.55;;
80926;SDS011;70385;44.538;18.532;2023-06-26T08:06:58;40.30;;;23.92;;
80926;SDS011;70385;44.538;18.532;2023-06-26T08:09:28;31.67;;;19.95;;
80926;SDS011;70385;44.538;18.532;2023-06-26T08:11:56;29.17;;;15.88;;
80926;SDS011;70385;44.538;18.532;2023-06-26T08:14:22;24.00;;;15.20;;
80926;SDS011;70385;44.538;18.532;2023-06-26T08:16:48;23.58;;;14.57;;
80926;SDS011;70385;44.538;18.532;2023-06-26T08:19:15;26.58;;;15.55;;
80926;SDS011;70385;44.538;18.532;2023-06-26T08:21:42;27.13;;;16.05;;
80926;SDS011;70385;44.538;18.532;2023-06-26T08:24:08;23.35;;;14.18;;
80926;SDS011;70385;44.538;18.532;2023-06-26T08:26:35;28.73;;;15.50;;
80926;SDS011;70385;44.538;18.532;2023-06-26T08:29:01;25.98;;;15.18;;
80926;SDS011;70385;44.538;18.532;2023-06-26T08:31:37;18.80;;;13.38;;
80926;SDS011;70385;44.538;18.532;2023-06-26T08:34:04;20.77;;;13.65;;
80926;SDS011;70385;44.538;18.532;2023-06-26T08:36:31;18.70;;;13.27;;
80926;SDS011;70385;44.538;18.532;2023-06-26T08:38:57;19.42;;;13.20;;
80926;SDS011;70385;44.538;18.532;2023-06-26T08:41:24;26.00;;;17.05;;
80926;SDS011;70385;44.538;18.532;2023-06-26T08:43:50;27.38;;;16.48;;
80926;SDS011;70385;44.538;18.532;2023-06-26T08:46:18;27.50;;;17.33;;
80926;SDS011;70385;44.538;18.532;2023-06-26T08:48:47;31.63;;;21.00;;
80926;SDS011;70385;44.538;18.532;2023-06-26T08:51:16;23.77;;;17.08;;
80926;SDS011;70385;44.538;18.532;2023-06-26T08:53:59;20.05;;;14.57;;
80926;SDS011;70385;44.538;18.532;2023-06-26T08:56:32;17.67;;;13.85;;
80926;SDS011;70385;44.538;18.532;2023-06-26T08:59:04;16.95;;;11.90;;
80926;SDS011;70385;44.538;18.532;2023-06-26T09:01:31;17.08;;;12.70;;
80926;SDS011;70385;44.538;18.532;2023-06-26T09:03:58;16.95;;;10.68;;
80926;SDS011;70385;44.538;18.532;2023-06-26T09:06:23;30.67;;;19.95;;
80926;SDS011;70385;44.538;18.532;2023-06-26T09:09:09;30.13;;;19.23;;
80926;SDS011;70385;44.538;18.532;2023-06-26T09:11:36;17.88;;;11.52;;
80926;SDS011;70385;44.538;18.532;2023-06-26T09:14:01;11.70;;;9.18;;
80926;SDS011;70385;44.538;18.532;2023-06-26T09:16:33;10.55;;;8.20;;
80926;SDS011;70385;44.538;18.532;2023-06-26T09:19:08;14.68;;;7.85;;
80926;SDS011;70385;44.538;18.532;2023-06-26T09:21:41;18.75;;;10.60;;
80926;SDS011;70385;44.538;18.532;2023-06-26T09:24:07;16.25;;;10.05;;
80926;SDS011;70385;44.538;18.532;2023-06-26T09:26:37;14.18;;;9.85;;
80926;SDS011;70385;44.538;18.532;2023-06-26T09:29:05;10.55;;;6.75;;
80926;SDS011;70385;44.538;18.532;2023-06-26T09:31:32;9.88;;;6.97;;
80926;SDS011;70385;44.538;18.532;2023-06-26T09:33:59;12.10;;;6.47;;
80926;SDS011;70385;44.538;18.532;2023-06-26T09:36:27;6.55;;;5.53;;
80926;SDS011;70385;44.538;18.532;2023-06-26T09:39:00;8.60;;;5.38;;
80926;SDS011;70385;44.538;18.532;2023-06-26T09:41:27;5.72;;;4.78;;
80926;SDS011;70385;44.538;18.532;2023-06-26T09:43:53;6.70;;;5.22;;
80926;SDS011;70385;44.538;18.532;2023-06-26T09:46:25;7.97;;;4.60;;
80926;SDS011;70385;44.538;18.532;2023-06-26T09:51:51;5.35;;;4.45;;
80926;SDS011;70385;44.538;18.532;2023-06-26T09:54:18;6.53;;;4.68;;
80926;SDS011;70385;44.538;18.532;2023-06-26T09:56:49;7.68;;;4.95;;
80926;SDS011;70385;44.538;18.532;2023-06-26T09:59:16;6.93;;;4.78;;
80926;SDS011;70385;44.538;18.532;2023-06-26T10:01:43;5.60;;;4.50;;
80926;SDS011;70385;44.538;18.532;2023-06-26T10:04:11;5.88;;;4.85;;
80926;SDS011;70385;44.538;18.532;2023-06-26T10:06:43;6.05;;;4.65;;
80926;SDS011;70385;44.538;18.532;2023-06-26T10:09:13;7.25;;;4.63;;
80926;SDS011;70385;44.538;18.532;2023-06-26T10:11:55;7.93;;;5.10;;
80926;SDS011;70385;44.538;18.532;2023-06-26T10:14:27;6.68;;;5.30;;
80926;SDS011;70385;44.538;18.532;2023-06-26T10:17:00;9.90;;;5.43;;
80926;SDS011;70385;44.538;18.532;2023-06-26T10:19:28;7.75;;;5.43;;
80926;SDS011;70385;44.538;18.532;2023-06-26T10:21:58;7.65;;;5.75;;
80926;SDS011;70385;44.538;18.532;2023-06-26T10:24:28;9.95;;;6.68;;
80926;SDS011;70385;44.538;18.532;2023-06-26T10:26:58;9.45;;;6.00;;
80926;SDS011;70385;44.538;18.532;2023-06-26T10:29:28;7.65;;;5.82;;
80926;SDS011;70385;44.538;18.532;2023-06-26T10:31:56;13.13;;;8.90;;
80926;SDS011;70385;44.538;18.532;2023-06-26T10:34:24;17.92;;;11.32;;
80926;SDS011;70385;44.538;18.532;2023-06-26T10:37:00;23.20;;;13.52;;
80926;SDS011;70385;44.538;18.532;2023-06-26T10:42:44;28.10;;;16.80;;
80926;SDS011;70385;44.538;18.532;2023-06-26T10:45:13;22.80;;;12.88;;
80926;SDS011;70385;44.538;18.532;2023-06-26T10:55:37;19.05;;;10.55;;
80926;SDS011;70385;44.538;18.532;2023-06-26T11:01:15;21.35;;;11.38;;
80926;SDS011;70385;44.538;18.532;2023-06-26T11:03:47;24.73;;;12.30;;
80926;SDS011;70385;44.538;18.532;2023-06-26T11:06:22;18.73;;;10.75;;
80926;SDS011;70385;44.538;18.532;2023-06-26T11:08:48;19.15;;;10.63;;
80926;SDS011;70385;44.538;18.532;2023-06-26T11:11:22;18.90;;;12.27;;
80926;SDS011;70385;44.538;18.532;2023-06-26T11:14:23;28.88;;;14.75;;
80926;SDS011;70385;44.538;18.532;2023-06-26T11:16:51;23.73;;;11.52;;
80926;SDS011;70385;44.538;18.532;2023-06-26T11:19:24;18.88;;;9.27;;
80926;SDS011;70385;44.538;18.532;2023-06-26T11:21:57;22.88;;;7.88;;
80926;SDS011;70385;44.538;18.532;2023-06-26T11:24:36;13.48;;;8.93;;
80926;SDS011;70385;44.538;18.532;2023-06-26T11:27:04;17.33;;;9.25;;
80926;SDS011;70385;44.538;18.532;2023-06-26T11:29:30;9.85;;;6.15;;
80926;SDS011;70385;44.538;18.532;2023-06-26T11:31:58;8.77;;;5.47;;
80926;SDS011;70385;44.538;18.532;2023-06-26T11:34:25;13.05;;;6.90;;
80926;SDS011;70385;44.538;18.532;2023-06-26T11:36:56;11.85;;;7.30;;
80926;SDS011;70385;44.538;18.532;2023-06-26T11:39:22;11.77;;;6.88;;
80926;SDS011;70385;44.538;18.532;2023-06-26T11:41:50;13.05;;;7.72;;
80926;SDS011;70385;44.538;18.532;2023-06-26T11:44:17;9.77;;;6.72;;
80926;SDS011;70385;44.538;18.532;2023-06-26T11:46:46;9.57;;;6.93;;
80926;SDS011;70385;44.538;18.532;2023-06-26T11:49:15;9.38;;;6.90;;
80926;SDS011;70385;44.538;18.532;2023-06-26T11:51:41;9.02;;;6.75;;
80926;SDS011;70385;44.538;18.532;2023-06-26T11:54:08;8.77;;;7.13;;
80926;SDS011;70385;44.538;18.532;2023-06-26T11:56:34;9.68;;;6.43;;
80926;SDS011;70385;44.538;18.532;2023-06-26T11:59:03;13.48;;;8.00;;
80926;SDS011;70385;44.538;18.532;2023-06-26T12:01:34;11.60;;;6.85;;
80926;SDS011;70385;44.538;18.532;2023-06-26T12:04:03;24.73;;;11.00;;
80926;SDS011;70385;44.538;18.532;2023-06-26T12:06:36;20.48;;;10.82;;
80926;SDS011;70385;44.538;18.532;2023-06-26T12:09:08;25.98;;;10.50;;
80926;SDS011;70385;44.538;18.532;2023-06-26T12:11:37;16.90;;;8.88;;
80926;SDS011;70385;44.538;18.532;2023-06-26T12:14:05;20.05;;;10.52;;
80926;SDS011;70385;44.538;18.532;2023-06-26T12:16:33;19.13;;;10.88;;
80926;SDS011;70385;44.538;18.532;2023-06-26T12:19:05;20.10;;;9.43;;
80926;SDS011;70385;44.538;18.532;2023-06-26T12:21:44;18.17;;;9.43;;
80926;SDS011;70385;44.538;18.532;2023-06-26T12:24:16;28.10;;;11.38;;
80926;SDS011;70385;44.538;18.532;2023-06-26T12:26:44;27.83;;;11.18;;
80926;SDS011;70385;44.538;18.532;2023-06-26T12:29:12;16.42;;;10.20;;
80926;SDS011;70385;44.538;18.532;2023-06-26T12:31:43;14.50;;;9.20;;
80926;SDS011;70385;44.538;18.532;2023-06-26T12:36:44;24.80;;;9.65;;
80926;SDS011;70385;44.538;18.532;2023-06-26T12:39:14;19.58;;;10.27;;
80926;SDS011;70385;44.538;18.532;2023-06-26T12:41:46;23.98;;;10.68;;
80926;SDS011;70385;44.538;18.532;2023-06-26T12:44:22;20.40;;;11.10;;
80926;SDS011;70385;44.538;18.532;2023-06-26T12:47:00;24.20;;;10.15;;
80926;SDS011;70385;44.538;18.532;2023-06-26T12:49:30;12.02;;;8.35;;
80926;SDS011;70385;44.538;18.532;2023-06-26T12:51:58;23.13;;;10.25;;
80926;SDS011;70385;44.538;18.532;2023-06-26T12:54:26;18.08;;;9.65;;
80926;SDS011;70385;44.538;18.532;2023-06-26T12:57:02;20.25;;;8.45;;
80926;SDS011;70385;44.538;18.532;2023-06-26T12:59:30;19.70;;;7.93;;
80926;SDS011;70385;44.538;18.532;2023-06-26T13:01:56;20.33;;;8.90;;
80926;SDS011;70385;44.538;18.532;2023-06-26T13:04:23;29.80;;;9.82;;
80926;SDS011;70385;44.538;18.532;2023-06-26T13:06:52;18.83;;;8.90;;
80926;SDS011;70385;44.538;18.532;2023-06-26T13:09:21;26.80;;;10.05;;
80926;SDS011;70385;44.538;18.532;2023-06-26T13:11:47;18.50;;;8.90;;
80926;SDS011;70385;44.538;18.532;2023-06-26T13:14:16;23.42;;;9.57;;
80926;SDS011;70385;44.538;18.532;2023-06-26T13:16:42;18.02;;;9.20;;
80926;SDS011;70385;44.538;18.532;2023-06-26T13:19:15;17.17;;;8.60;;
80926;SDS011;70385;44.538;18.532;2023-06-26T13:21:42;13.48;;;8.07;;
80926;SDS011;70385;44.538;18.532;2023-06-26T13:24:09;8.98;;;7.00;;
80926;SDS011;70385;44.538;18.532;2023-06-26T13:26:34;11.27;;;6.93;;
80926;SDS011;70385;44.538;18.532;2023-06-26T13:29:02;10.30;;;6.57;;
80926;SDS011;70385;44.538;18.532;2023-06-26T13:31:29;8.63;;;5.88;;
80926;SDS011;70385;44.538;18.532;2023-06-26T13:33:57;10.35;;;5.78;;
80926;SDS011;70385;44.538;18.532;2023-06-26T13:36:24;9.80;;;6.05;;
80926;SDS011;70385;44.538;18.532;2023-06-26T13:38:50;8.45;;;6.15;;
80926;SDS011;70385;44.538;18.532;2023-06-26T13:41:26;12.75;;;7.45;;
80926;SDS011;70385;44.538;18.532;2023-06-26T13:43:53;9.90;;;7.00;;
80926;SDS011;70385;44.538;18.532;2023-06-26T13:46:21;13.63;;;7.47;;
80926;SDS011;70385;44.538;18.532;2023-06-26T13:48:47;11.35;;;7.25;;
80926;SDS011;70385;44.538;18.532;2023-06-26T13:51:13;10.13;;;7.28;;
80926;SDS011;70385;44.538;18.532;2023-06-26T13:53:39;13.40;;;6.78;;
80926;SDS011;70385;44.538;18.532;2023-06-26T13:56:05;18.13;;;8.45;;
80926;SDS011;70385;44.538;18.532;2023-06-26T13:58:35;13.95;;;8.32;;
80926;SDS011;70385;44.538;18.532;2023-06-26T14:01:01;15.90;;;8.40;;
80926;SDS011;70385;44.538;18.532;2023-06-26T14:03:30;17.83;;;9.93;;
80926;SDS011;70385;44.538;18.532;2023-06-26T14:05:56;15.45;;;9.00;;
80926;SDS011;70385;44.538;18.532;2023-06-26T14:08:23;18.55;;;8.75;;
80926;SDS011;70385;44.538;18.532;2023-06-26T14:10:49;13.43;;;6.70;;
80926;SDS011;70385;44.538;18.532;2023-06-26T14:13:18;10.88;;;5.35;;
80926;SDS011;70385;44.538;18.532;2023-06-26T14:15:44;7.65;;;4.82;;
80926;SDS011;70385;44.538;18.532;2023-06-26T14:18:12;15.70;;;7.25;;
80926;SDS011;70385;44.538;18.532;2023-06-26T14:20:38;10.85;;;5.45;;
80926;SDS011;70385;44.538;18.532;2023-06-26T14:23:08;7.03;;;4.70;;
80926;SDS011;70385;44.538;18.532;2023-06-26T14:25:34;13.48;;;5.15;;
80926;SDS011;70385;44.538;18.532;2023-06-26T14:28:00;7.53;;;4.50;;
80926;SDS011;70385;44.538;18.532;2023-06-26T14:30:27;5.35;;;3.38;;
80926;SDS011;70385;44.538;18.532;2023-06-26T14:33:11;5.65;;;3.83;;
80926;SDS011;70385;44.538;18.532;2023-06-26T14:35:50;6.65;;;3.42;;
80926;SDS011;70385;44.538;18.532;2023-06-26T14:38:26;6.32;;;3.13;;
80926;SDS011;70385;44.538;18.532;2023-06-26T14:40:53;7.78;;;3.53;;
80926;SDS011;70385;44.538;18.532;2023-06-26T14:43:22;6.53;;;3.08;;
80926;SDS011;70385;44.538;18.532;2023-06-26T14:45:49;3.60;;;3.20;;
80926;SDS011;70385;44.538;18.532;2023-06-26T14:48:16;6.10;;;4.00;;